createdAt,value
2019-03-27T00:01:10.639Z,96.90
2019-03-27T00:03:41.526Z,96.80
2019-03-27T00:06:13.169Z,96.80
2019-03-27T00:08:44.090Z,96.80
2019-03-27T00:11:16.336Z,97.00
2019-03-27T00:13:48.418Z,96.90
2019-03-27T00:16:19.243Z,96.90
2019-03-27T00:18:50.253Z,96.80
2019-03-27T00:21:21.110Z,96.90
2019-03-27T00:23:51.947Z,97.00
2019-03-27T00:26:22.823Z,97.00
2019-03-27T00:28:54.850Z,96.90
2019-03-27T00:31:25.750Z,96.90
2019-03-27T00:33:56.602Z,96.80
2019-03-27T00:36:27.454Z,96.80
2019-03-27T00:38:58.322Z,96.90
2019-03-27T00:41:29.298Z,97.30
2019-03-27T00:44:00.146Z,97.00
2019-03-27T00:46:31.063Z,97.20
2019-03-27T00:49:01.876Z,97.10
2019-03-27T00:51:33.714Z,97.00
2019-03-27T00:54:04.622Z,97.00
2019-03-27T00:56:35.514Z,96.90
2019-03-27T00:59:06.413Z,96.90
2019-03-27T01:01:37.256Z,97.00
2019-03-27T01:04:08.187Z,97.10
2019-03-27T01:06:39.016Z,97.10
2019-03-27T01:09:09.861Z,97.20
2019-03-27T01:11:40.714Z,97.20
2019-03-27T01:14:11.575Z,97.60
2019-03-27T01:16:42.408Z,97.30
2019-03-27T01:19:13.272Z,97.50
2019-03-27T01:21:44.191Z,97.60
2019-03-27T01:24:15.053Z,97.80
2019-03-27T01:26:45.956Z,97.80
2019-03-27T01:29:17.273Z,97.80
2019-03-27T01:31:48.145Z,97.80
2019-03-27T01:34:19.074Z,97.90
2019-03-27T01:36:50.023Z,98.00
2019-03-27T01:39:20.900Z,98.00
2019-03-27T01:41:51.780Z,98.10
2019-03-27T01:44:22.673Z,98.00
2019-03-27T01:46:53.533Z,98.50
2019-03-27T01:49:24.434Z,98.20
2019-03-27T01:51:55.288Z,98.20
2019-03-27T01:54:26.168Z,98.30
2019-03-27T01:56:57.018Z,98.30
2019-03-27T01:59:28.213Z,98.50
2019-03-27T02:01:59.027Z,98.60
2019-03-27T02:04:29.941Z,98.60
2019-03-27T02:07:00.809Z,98.50
2019-03-27T02:09:31.685Z,98.50
2019-03-27T02:12:02.525Z,98.60
2019-03-27T02:14:33.402Z,98.60
2019-03-27T02:17:04.270Z,98.70
2019-03-27T02:19:35.161Z,98.60
2019-03-27T02:22:06.033Z,98.70
2019-03-27T02:24:36.935Z,98.60
2019-03-27T02:27:07.937Z,98.80
2019-03-27T02:29:39.526Z,98.90
2019-03-27T02:32:10.410Z,98.90
2019-03-27T02:34:41.312Z,99.00
2019-03-27T02:37:12.186Z,99.00
2019-03-27T02:39:44.187Z,99.10
2019-03-27T02:42:15.127Z,99.10
2019-03-27T02:44:47.046Z,99.10
2019-03-27T02:47:17.949Z,99.10
2019-03-27T02:49:48.793Z,99.10
2019-03-27T02:52:19.679Z,99.10
2019-03-27T02:54:50.555Z,99.20
2019-03-27T02:57:21.375Z,99.20
2019-03-27T02:59:53.284Z,99.10
2019-03-27T03:02:24.178Z,99.10
2019-03-27T03:04:55.059Z,99.10
2019-03-27T03:07:26.395Z,99.20
2019-03-27T03:09:57.275Z,99.20
2019-03-27T03:12:28.130Z,99.20
2019-03-27T03:14:58.996Z,99.20
2019-03-27T03:17:29.875Z,99.20
2019-03-27T03:20:00.751Z,99.00
2019-03-27T03:22:31.602Z,99.00
2019-03-27T03:25:02.446Z,98.80
2019-03-27T03:27:33.373Z,98.90
2019-03-27T03:30:04.947Z,99.00
2019-03-27T03:32:35.825Z,98.90
2019-03-27T03:35:07.291Z,98.90
2019-03-27T03:37:38.095Z,98.90
2019-03-27T03:40:09.347Z,98.80
2019-03-27T03:42:41.503Z,98.90
2019-03-27T03:45:12.665Z,98.90
2019-03-27T03:47:43.602Z,98.90
2019-03-27T03:50:37.793Z,98.90
2019-03-27T03:53:10.245Z,98.80
2019-03-27T03:55:41.688Z,98.90
2019-03-27T03:58:14.088Z,98.90
2019-03-27T04:00:45.357Z,99.00
2019-03-27T04:03:16.220Z,99.00
2019-03-27T04:05:47.152Z,98.80
2019-03-27T04:08:18.055Z,98.80
2019-03-27T04:10:48.958Z,98.70
2019-03-27T04:13:19.835Z,98.80
2019-03-27T04:15:50.734Z,99.10
2019-03-27T04:18:21.609Z,98.80
2019-03-27T04:20:52.441Z,98.90
2019-03-27T04:23:23.315Z,98.90
2019-03-27T04:26:09.189Z,99.30
2019-03-27T04:28:26.700Z,98.90
2019-03-27T04:30:57.599Z,98.90
2019-03-27T04:33:28.467Z,98.90
2019-03-27T04:38:40.737Z,99.10
2019-03-27T04:41:11.563Z,98.60
2019-03-27T04:43:43.064Z,98.60
2019-03-27T04:46:13.886Z,98.60
2019-03-27T04:48:44.786Z,98.70
2019-03-27T04:51:16.503Z,98.80
2019-03-27T04:53:47.707Z,98.80
2019-03-27T04:56:18.573Z,98.70
2019-03-27T04:58:49.457Z,98.80
2019-03-27T05:01:21.270Z,98.80
2019-03-27T05:03:52.779Z,98.60
2019-03-27T05:06:23.644Z,98.70
2019-03-27T05:08:54.570Z,98.50
2019-03-27T05:11:25.420Z,98.40
2019-03-27T05:13:56.410Z,98.50
2019-03-27T05:16:27.348Z,98.40
2019-03-27T05:18:58.287Z,98.60
2019-03-27T05:21:29.094Z,98.60
2019-03-27T05:24:00.459Z,98.60
2019-03-27T05:26:31.284Z,98.60
2019-03-27T05:29:02.748Z,98.70
2019-03-27T05:31:33.626Z,98.70
2019-03-27T05:34:05.424Z,98.70
2019-03-27T05:36:36.246Z,98.60
2019-03-27T05:39:07.994Z,98.40
2019-03-27T05:41:38.794Z,98.20
2019-03-27T05:44:10.352Z,98.10
2019-03-27T05:46:41.197Z,98.20
2019-03-27T05:49:11.980Z,98.10
2019-03-27T05:51:42.960Z,97.90
2019-03-27T05:54:13.872Z,97.90
2019-03-27T05:56:44.714Z,97.90
2019-03-27T05:59:15.678Z,97.70
2019-03-27T06:01:46.588Z,97.60
2019-03-27T06:04:20.102Z,97.60
2019-03-27T06:06:52.353Z,97.70
2019-03-27T06:09:23.258Z,97.70
2019-03-27T06:11:54.083Z,97.80
2019-03-27T06:14:24.916Z,97.90
2019-03-27T06:16:55.786Z,97.90
2019-03-27T06:19:26.644Z,97.80
2019-03-27T06:21:57.538Z,97.70
2019-03-27T06:24:28.378Z,97.70
2019-03-27T06:26:59.244Z,97.50
2019-03-27T06:29:30.142Z,97.50
2019-03-27T06:32:00.976Z,97.00
2019-03-27T06:34:31.902Z,97.00
2019-03-27T06:37:02.768Z,97.10
2019-03-27T06:39:33.644Z,97.00
2019-03-27T06:42:04.480Z,96.70
2019-03-27T06:44:35.348Z,96.60
2019-03-27T06:47:06.263Z,96.70
2019-03-27T06:49:37.068Z,96.60
2019-03-27T06:52:09.084Z,96.70
2019-03-27T06:54:39.980Z,96.60
2019-03-27T06:57:10.888Z,96.60
2019-03-27T06:59:42.379Z,96.40
2019-03-27T07:02:13.878Z,96.40
2019-03-27T07:04:45.866Z,96.40
2019-03-27T07:07:16.838Z,96.30
2019-03-27T07:09:47.742Z,95.80
2019-03-27T07:12:21.341Z,95.80
2019-03-27T07:14:51.200Z,95.70
2019-03-27T07:17:22.075Z,95.50
2019-03-27T07:19:52.939Z,95.30
2019-03-27T07:22:23.852Z,95.00
2019-03-27T07:24:54.770Z,95.00
2019-03-27T07:27:25.640Z,94.70
2019-03-27T07:29:56.561Z,94.40
2019-03-27T07:32:27.397Z,94.40
2019-03-27T07:34:58.820Z,94.30
2019-03-27T07:37:29.674Z,94.40
2019-03-27T07:40:00.552Z,94.30
2019-03-27T07:42:31.392Z,94.30
2019-03-27T07:45:02.215Z,94.10
2019-03-27T07:47:33.236Z,94.00
2019-03-27T07:50:04.628Z,93.60
2019-03-27T07:52:35.456Z,93.50
2019-03-27T07:55:18.629Z,93.40
2019-03-27T07:57:39.441Z,93.10
2019-03-27T08:00:13.385Z,92.70
2019-03-27T08:02:44.294Z,92.70
2019-03-27T08:05:15.712Z,92.70
2019-03-27T08:07:46.583Z,92.50
2019-03-27T08:10:17.508Z,91.90
2019-03-27T08:12:49.147Z,91.90
2019-03-27T08:15:20.034Z,91.50
2019-03-27T08:17:50.891Z,91.20
2019-03-27T08:20:22.934Z,91.30
2019-03-27T08:22:53.916Z,89.20
2019-03-27T08:25:24.852Z,89.50
2019-03-27T08:27:55.620Z,88.90
2019-03-27T08:30:26.628Z,88.00
2019-03-27T08:32:59.547Z,86.90
2019-03-27T08:35:31.382Z,88.80
2019-03-27T08:38:02.230Z,87.70
2019-03-27T08:40:33.137Z,71.50
2019-03-27T08:43:04.016Z,67.40
2019-03-27T08:45:34.884Z,63.20
2019-03-27T08:48:05.895Z,55.60
2019-03-27T08:50:37.858Z,51.50
2019-03-27T08:53:08.760Z,46.30
2019-03-27T08:55:39.613Z,42.30
2019-03-27T08:58:10.621Z,41.50
2019-03-27T09:00:50.828Z,38.60
2019-03-27T09:03:21.707Z,37.20
2019-03-27T09:05:54.973Z,34.00
2019-03-27T09:08:25.865Z,31.40
2019-03-27T09:10:56.728Z,30.30
2019-03-27T09:13:27.672Z,28.80
2019-03-27T09:15:58.552Z,28.50
2019-03-27T09:18:29.824Z,28.30
2019-03-27T09:21:00.783Z,27.20
2019-03-27T09:23:31.568Z,28.10
2019-03-27T09:26:02.546Z,26.80
2019-03-27T09:28:33.414Z,27.20
2019-03-27T09:31:04.472Z,26.70
2019-03-27T09:33:35.398Z,27.40
2019-03-27T09:36:07.604Z,28.60
2019-03-27T09:38:38.551Z,29.00
2019-03-27T09:41:09.499Z,29.90
2019-03-27T09:43:40.962Z,29.20
2019-03-27T09:46:12.750Z,28.40
2019-03-27T09:48:43.659Z,28.90
2019-03-27T09:51:15.238Z,28.30
2019-03-27T09:53:46.126Z,28.80
2019-03-27T09:56:19.384Z,28.20
2019-03-27T09:58:49.849Z,28.50
2019-03-27T10:01:21.568Z,28.70
2019-03-27T10:03:52.486Z,27.20
2019-03-27T10:06:42.120Z,27.90
2019-03-27T10:09:13.372Z,27.80
2019-03-27T10:11:44.261Z,28.50
2019-03-27T10:14:15.157Z,28.10
2019-03-27T10:16:46.063Z,27.80
2019-03-27T10:19:16.970Z,28.10
2019-03-27T10:21:47.866Z,26.00
2019-03-27T10:24:18.778Z,25.50
2019-03-27T10:26:49.661Z,24.50
2019-03-27T10:29:20.544Z,23.70
2019-03-27T10:31:51.483Z,23.70
2019-03-27T10:34:22.383Z,24.30
2019-03-27T10:36:54.560Z,23.90
2019-03-27T10:39:25.427Z,23.90
2019-03-27T10:41:56.614Z,24.00
2019-03-27T10:44:27.504Z,23.90
2019-03-27T10:46:58.361Z,24.00
2019-03-27T10:49:29.240Z,24.60
2019-03-27T10:52:00.216Z,24.90
2019-03-27T10:54:31.088Z,25.60
2019-03-27T10:57:03.552Z,25.00
2019-03-27T10:59:34.468Z,25.40
2019-03-27T11:02:05.344Z,25.40
2019-03-27T11:04:36.212Z,25.00
2019-03-27T11:07:07.102Z,25.70
2019-03-27T11:09:39.658Z,26.20
2019-03-27T11:12:10.481Z,25.60
2019-03-27T11:14:41.390Z,26.00
2019-03-27T11:17:12.222Z,26.40
2019-03-27T11:19:43.105Z,26.20
2019-03-27T11:22:13.988Z,26.20
2019-03-27T11:24:44.868Z,26.20
2019-03-27T11:27:15.738Z,26.70
2019-03-27T11:29:47.652Z,27.30
2019-03-27T11:32:18.547Z,28.30
2019-03-27T11:34:49.410Z,28.70
2019-03-27T11:37:20.379Z,28.90
2019-03-27T11:39:51.240Z,29.40
2019-03-27T11:42:22.163Z,29.20
2019-03-27T11:44:53.964Z,29.90
2019-03-27T11:47:24.901Z,30.40
2019-03-27T11:49:55.698Z,30.00
2019-03-27T11:52:29.540Z,30.60
2019-03-27T11:54:59.434Z,32.00
2019-03-27T11:57:30.335Z,32.80
2019-03-27T12:00:01.098Z,33.30
2019-03-27T12:02:32.043Z,33.50
2019-03-27T12:05:02.940Z,33.80
2019-03-27T12:07:33.780Z,34.30
2019-03-27T12:10:05.457Z,34.20
2019-03-27T12:12:37.979Z,34.30
2019-03-27T12:15:09.621Z,34.60
2019-03-27T12:17:40.574Z,34.80
2019-03-27T12:20:12.124Z,33.50
2019-03-27T12:22:56.925Z,33.60
2019-03-27T12:25:16.048Z,33.40
2019-03-27T12:27:48.004Z,33.30
2019-03-27T12:30:18.988Z,33.80
2019-03-27T12:32:49.875Z,32.20
2019-03-27T12:35:20.830Z,32.60
2019-03-27T12:37:53.019Z,33.00
2019-03-27T12:40:23.918Z,33.00
2019-03-27T12:42:54.778Z,32.20
2019-03-27T12:45:25.652Z,32.00
2019-03-27T12:47:56.542Z,33.20
2019-03-27T12:50:27.388Z,33.60
2019-03-27T12:52:58.336Z,33.90
2019-03-27T12:55:29.120Z,34.10
2019-03-27T12:58:00.036Z,34.70
2019-03-27T13:00:32.550Z,34.80
2019-03-27T13:03:03.342Z,34.80
2019-03-27T13:05:34.212Z,33.30
2019-03-27T13:08:05.556Z,33.70
2019-03-27T13:10:36.445Z,33.90
2019-03-27T13:13:07.354Z,35.10
2019-03-27T13:15:38.216Z,35.90
2019-03-27T13:18:09.087Z,35.50
2019-03-27T13:20:40.005Z,36.00
2019-03-27T13:23:10.877Z,35.80
2019-03-27T13:25:41.807Z,36.10
2019-03-27T13:28:13.180Z,36.00
2019-03-27T13:30:44.036Z,36.30
2019-03-27T13:33:14.929Z,36.10
2019-03-27T13:35:45.820Z,35.90
2019-03-27T13:38:17.596Z,36.40
2019-03-27T13:40:48.444Z,36.80
2019-03-27T13:43:19.295Z,37.10
2019-03-27T13:45:50.244Z,37.00
2019-03-27T13:48:21.234Z,36.80
2019-03-27T13:50:52.121Z,37.20
2019-03-27T13:53:23.034Z,37.80
2019-03-27T13:55:53.905Z,37.80
2019-03-27T13:58:24.776Z,37.90
2019-03-27T14:00:55.657Z,38.20
2019-03-27T14:03:26.511Z,38.50
2019-03-27T14:05:57.420Z,39.00
2019-03-27T14:08:29.270Z,38.60
2019-03-27T14:11:00.158Z,39.00
2019-03-27T14:13:31.000Z,39.20
2019-03-27T14:16:01.921Z,39.10
2019-03-27T14:18:32.750Z,39.00
2019-03-27T14:21:03.602Z,38.80
2019-03-27T14:23:34.465Z,38.20
2019-03-27T14:26:06.302Z,38.20
2019-03-27T14:28:37.182Z,38.70
2019-03-27T14:31:08.181Z,38.80
2019-03-27T14:33:39.052Z,39.30
2019-03-27T14:36:09.988Z,39.20
2019-03-27T14:38:41.108Z,40.00
2019-03-27T14:41:14.514Z,40.30
2019-03-27T14:43:45.565Z,41.10
2019-03-27T14:46:17.595Z,41.70
2019-03-27T14:48:49.054Z,42.50
2019-03-27T14:51:19.968Z,42.20
2019-03-27T14:53:50.884Z,42.40
2019-03-27T14:56:22.357Z,43.20
2019-03-27T14:58:53.161Z,42.90
2019-03-27T15:01:23.999Z,42.80
2019-03-27T15:03:54.895Z,43.30
2019-03-27T15:06:25.778Z,43.60
2019-03-27T15:08:56.682Z,43.90
2019-03-27T15:11:27.552Z,44.30
2019-03-27T15:13:58.453Z,44.50
2019-03-27T15:16:29.384Z,44.90
2019-03-27T15:19:00.321Z,45.00
2019-03-27T15:21:31.195Z,45.20
2019-03-27T15:24:02.085Z,45.40
2019-03-27T15:26:32.937Z,45.80
2019-03-27T15:29:03.872Z,46.10
2019-03-27T15:31:35.567Z,46.50
2019-03-27T15:34:06.468Z,46.90
2019-03-27T15:36:37.382Z,47.30
2019-03-27T15:39:09.325Z,47.60
2019-03-27T15:41:40.290Z,48.30
2019-03-27T15:44:11.158Z,48.50
2019-03-27T15:46:42.026Z,48.90
2019-03-27T15:49:12.900Z,49.00
2019-03-27T15:51:43.798Z,49.20
2019-03-27T15:54:14.694Z,49.10
2019-03-27T15:56:45.572Z,49.70
2019-03-27T15:59:16.471Z,49.70
2019-03-27T16:01:47.316Z,49.70
2019-03-27T16:04:18.254Z,50.00
2019-03-27T16:06:49.118Z,50.10
2019-03-27T16:09:21.168Z,50.10
2019-03-27T16:11:52.220Z,50.40
2019-03-27T16:14:23.103Z,50.80
2019-03-27T16:17:12.006Z,51.70
2019-03-27T16:19:26.492Z,51.30
2019-03-27T16:21:57.334Z,51.50
2019-03-27T16:24:28.236Z,51.70
2019-03-27T16:27:04.789Z,52.00
2019-03-27T16:29:31.863Z,51.90
2019-03-27T16:32:02.734Z,52.30
2019-03-27T16:34:33.614Z,52.50
2019-03-27T16:37:04.520Z,52.70
2019-03-27T16:39:36.588Z,53.10
2019-03-27T16:42:07.462Z,53.00
2019-03-27T16:44:38.326Z,53.00
2019-03-27T16:47:09.258Z,53.20
2019-03-27T16:49:40.113Z,53.30
2019-03-27T16:52:11.028Z,53.50
2019-03-27T16:54:41.956Z,53.80
2019-03-27T16:57:12.787Z,54.00
2019-03-27T16:59:46.464Z,53.80
2019-03-27T17:02:17.421Z,53.70
2019-03-27T17:04:48.701Z,53.80
2019-03-27T17:07:19.604Z,54.00
2019-03-27T17:09:50.795Z,53.90
2019-03-27T17:12:21.700Z,53.70
2019-03-27T17:14:52.530Z,53.70
2019-03-27T17:17:23.402Z,53.80
2019-03-27T17:19:54.230Z,53.90
2019-03-27T17:22:25.223Z,53.60
2019-03-27T17:24:56.261Z,53.50
2019-03-27T17:27:27.250Z,53.90
2019-03-27T17:29:58.038Z,54.00
2019-03-27T17:32:30.060Z,53.80
2019-03-27T17:35:01.001Z,54.20
2019-03-27T17:37:31.916Z,54.60
2019-03-27T17:40:05.052Z,54.40
2019-03-27T17:42:36.003Z,54.50
2019-03-27T17:45:07.600Z,54.20
2019-03-27T17:47:39.020Z,54.40
2019-03-27T17:50:10.768Z,54.30
2019-03-27T17:52:41.620Z,54.10
2019-03-27T17:55:12.623Z,54.10
2019-03-27T17:57:43.494Z,54.40
2019-03-27T18:00:18.117Z,54.30
2019-03-27T18:02:48.989Z,54.30
2019-03-27T18:05:19.859Z,54.40
2019-03-27T18:07:50.732Z,54.60
2019-03-27T18:10:22.864Z,54.80
2019-03-27T18:12:53.812Z,55.00
2019-03-27T18:15:24.664Z,55.10
2019-03-27T18:17:55.536Z,56.00
2019-03-27T18:20:26.402Z,55.60
2019-03-27T18:22:57.479Z,55.90
2019-03-27T18:25:28.416Z,56.10
2019-03-27T18:27:59.307Z,56.50
2019-03-27T18:30:30.704Z,56.50
2019-03-27T18:33:02.085Z,56.60
2019-03-27T18:35:32.967Z,56.80
2019-03-27T18:38:03.776Z,56.90
2019-03-27T18:40:36.109Z,57.10
2019-03-27T18:43:07.021Z,57.30
2019-03-27T18:45:37.918Z,57.30
2019-03-27T18:48:08.774Z,57.60
2019-03-27T18:50:40.660Z,57.70
2019-03-27T18:53:11.560Z,57.60
2019-03-27T18:55:42.595Z,57.80
2019-03-27T18:58:13.457Z,58.60
2019-03-27T19:00:44.446Z,58.00
2019-03-27T19:03:15.317Z,58.20
2019-03-27T19:05:46.224Z,57.90
2019-03-27T19:08:17.104Z,58.20
2019-03-27T19:10:58.463Z,58.40
2019-03-27T19:13:39.996Z,58.40
2019-03-27T19:16:10.908Z,58.70
2019-03-27T19:18:41.837Z,58.90
2019-03-27T19:21:13.543Z,59.10
2019-03-27T19:23:44.435Z,59.50
2019-03-27T19:26:15.470Z,59.50
2019-03-27T19:28:47.538Z,59.80
2019-03-27T19:31:18.486Z,60.00
2019-03-27T19:33:49.518Z,60.10
2019-03-27T19:36:20.430Z,60.10
2019-03-27T19:38:51.304Z,60.70
2019-03-27T19:41:22.736Z,60.70
2019-03-27T19:43:54.722Z,61.00
2019-03-27T19:46:25.616Z,61.30
2019-03-27T19:48:56.526Z,61.60
2019-03-27T19:51:27.445Z,61.80
2019-03-27T19:53:58.376Z,62.30
2019-03-27T19:56:29.268Z,62.50
2019-03-27T19:59:00.167Z,62.70
2019-03-27T20:01:31.156Z,63.20
2019-03-27T20:04:02.208Z,63.40
2019-03-27T20:06:33.061Z,64.20
2019-03-27T20:09:05.106Z,64.20
2019-03-27T20:11:37.328Z,64.80
2019-03-27T20:14:08.388Z,65.30
2019-03-27T20:16:39.272Z,65.60
2019-03-27T20:19:10.126Z,66.30
2019-03-27T20:21:41.035Z,67.10
2019-03-27T20:24:11.905Z,67.40
2019-03-27T20:26:43.922Z,68.10
2019-03-27T20:29:14.904Z,68.30
2019-03-27T20:31:48.592Z,68.80
2019-03-27T20:34:19.574Z,69.40
2019-03-27T20:36:50.472Z,69.80
2019-03-27T20:39:24.330Z,70.30
2019-03-27T20:41:55.406Z,71.10
2019-03-27T20:44:26.393Z,71.70
2019-03-27T20:46:57.298Z,72.40
2019-03-27T20:49:28.178Z,73.00
2019-03-27T20:51:58.966Z,73.60
2019-03-27T20:54:29.872Z,74.20
2019-03-27T20:57:00.735Z,75.10
2019-03-27T20:59:31.642Z,75.40
2019-03-27T21:02:02.612Z,75.90
2019-03-27T21:04:33.498Z,76.20
2019-03-27T21:07:04.391Z,76.60
2019-03-27T21:09:35.317Z,77.00
2019-03-27T21:12:08.358Z,77.60
2019-03-27T21:14:39.305Z,77.70
2019-03-27T21:17:10.222Z,78.30
2019-03-27T21:19:41.184Z,78.80
2019-03-27T21:22:11.994Z,79.40
2019-03-27T21:24:42.862Z,79.80
2019-03-27T21:27:16.767Z,80.90
2019-03-27T21:29:46.290Z,81.00
2019-03-27T21:32:18.243Z,81.30
2019-03-27T21:34:49.120Z,81.70
2019-03-27T21:37:20.014Z,82.20
2019-03-27T21:39:50.920Z,82.80
2019-03-27T21:42:22.352Z,83.30
2019-03-27T21:44:53.212Z,83.70
2019-03-27T21:47:24.057Z,84.20
2019-03-27T21:49:54.932Z,84.90
2019-03-27T21:52:25.825Z,85.10
2019-03-27T21:54:56.822Z,85.90
2019-03-27T21:57:27.693Z,85.80
2019-03-27T21:59:58.723Z,86.20
2019-03-27T22:02:30.710Z,86.60
2019-03-27T22:05:01.620Z,87.10
2019-03-27T22:07:32.484Z,87.30
2019-03-27T22:10:03.485Z,87.60
2019-03-27T22:12:38.077Z,88.00
2019-03-27T22:15:08.772Z,88.40
2019-03-27T22:17:39.752Z,88.50
2019-03-27T22:20:13.458Z,88.80
2019-03-27T22:22:44.352Z,89.40
2019-03-27T22:25:15.264Z,89.30
2019-03-27T22:27:46.115Z,89.60
2019-03-27T22:30:17.046Z,90.10
2019-03-27T22:32:47.922Z,90.10
2019-03-27T22:35:18.818Z,90.30
2019-03-27T22:37:50.085Z,90.40
2019-03-27T22:40:20.985Z,90.70
2019-03-27T22:42:52.484Z,90.70
2019-03-27T22:45:23.395Z,90.80
2019-03-27T22:47:54.291Z,90.90
2019-03-27T22:50:25.177Z,91.20
2019-03-27T22:52:56.075Z,91.30
2019-03-27T22:55:26.962Z,91.40
2019-03-27T22:57:57.848Z,91.70
2019-03-27T23:00:42.054Z,91.90
2019-03-27T23:03:18.447Z,92.30
2019-03-27T23:05:45.938Z,92.30
2019-03-27T23:08:16.910Z,92.40
2019-03-27T23:10:47.746Z,92.60
2019-03-27T23:13:20.704Z,92.60
2019-03-27T23:15:51.609Z,92.80
2019-03-27T23:18:22.553Z,92.90
2019-03-27T23:20:53.474Z,92.90
2019-03-27T23:23:24.397Z,92.90
2019-03-27T23:26:02.864Z,93.00
2019-03-27T23:28:27.868Z,93.00
2019-03-27T23:30:58.816Z,93.10
2019-03-27T23:33:31.986Z,93.00
2019-03-27T23:36:02.904Z,93.20
2019-03-27T23:38:33.761Z,93.10
2019-03-27T23:41:04.722Z,93.20
2019-03-27T23:43:35.621Z,93.30
2019-03-27T23:46:06.464Z,93.20
2019-03-27T23:48:37.347Z,93.40
2019-03-27T23:51:08.312Z,93.40
2019-03-27T23:53:39.162Z,93.50
2019-03-27T23:56:16.597Z,93.50
2019-03-27T23:58:42.592Z,93.50
